MMTP/TAP METAR and TAF weather

Enter ICAO airport designator
Station Type Date Time Source
MMTP METAR 2019/12/06 23:40 UTC NOAA

MMTP 062340Z 00000KT 9SM SCT250 28/24 A2991 RMK SLP153 52008 915 8/001 HZY


Station Type Date Time Source
MMTP Decoded METAR 2019/12/06 23:40 UTC NOAA

Tapachula , Mexico (MMTP) 14-47N 092-23W
Dec 06, 2019 - 06:40 PM EST / 2019.12.06 2340 UTC
Wind: Calm:0
Visibility: 9 mile(s):0
Sky conditions: partly cloudy
Temperature: 82 F (28 C)
Dew Point: 75 F (24 C)
Relative Humidity: 78%
Pressure (altimeter): 29.91 in. Hg (1012 hPa)
Pressure tendency: 0.02 inches (0.8 hPa) higher than three hours ago
ob: MMTP 062340Z 00000KT 9SM SCT250 28/24 A2991 RMK SLP153 52008 915 8/001 HZY
cycle: 23

Station Type Date Time Source
MMTP TAF 2019/12/06 18:58 UTC NOAA

TAF MMTP 061656Z 0618/0724 26010KT P6SM SKC
BECMG 0701/0702 00000KT
FM071500 32010KT P6SM SKC

Example: see airport list